Time;durP1;ratioP1;P1;durP2;ratioP2;P2;SDS_P1;SDS_P2;PMS_P1;PMS_P2;Temp;Humidity;BMP_temperature;BMP_pressure;BME280_temperature;BME280_humidity;BME280_pressure;Samples;Min_cycle;Max_cycle;Signal;HPM_P1;HPM_P2
2023/10/21 00:02:45;;;;;;;;;;;;;;;19.04;43.98;93365.16;10435375;28;2755;-55
2023/10/21 00:07:45;;;;;;;;;;;;;;;19.04;43.81;93364.41;10435519;28;4618;-57
2023/10/21 00:12:45;;;;;;;;;;;;;;;19.05;43.93;93384.31;10433089;28;3028;-58
2023/10/21 00:17:46;;;;;;;;;;;;;;;19.03;43.85;93389.91;10435067;28;3026;-57
2023/10/21 00:22:46;;;;;;;;;;;;;;;19.04;43.95;93393.31;10436693;28;2764;-57
2023/10/21 00:27:46;;;;;;;;;;;;;;;19.04;43.87;93403.81;10432598;28;2755;-55
2023/10/21 00:32:47;;;;;;;;;;;;;;;19.04;43.96;93419.56;10433173;28;2579;-56
2023/10/21 00:37:47;;;;;;;;;;;;;;;19.04;43.88;93424.81;10424342;28;2611;-55
2023/10/21 00:42:47;;;;;;;;;;;;;;;19.02;43.95;93430.34;10428077;28;2971;-57
2023/10/21 00:47:48;;;;;;;;;;;;;;;19.03;43.84;93439.78;10429891;28;2610;-57
2023/10/21 00:52:48;;;;;;;;;;;;;;;19.02;43.82;93448.72;10422614;28;2622;-58
2023/10/21 00:57:48;;;;;;;;;;;;;;;19.03;43.84;93445.03;10426982;28;2600;-56
2023/10/21 01:02:49;;;;;;;;;;;;;;;19.03;43.91;93460.00;10426652;28;2624;-58
2023/10/21 01:07:49;;;;;;;;;;;;;;;19.02;43.63;93461.88;10429180;28;4574;-56
2023/10/21 01:12:49;;;;;;;;;;;;;;;19.02;43.88;93466.38;10422423;28;2654;-58
2023/10/21 01:17:50;;;;;;;;;;;;;;;19.02;43.67;93469.75;10431641;28;2596;-58
2023/10/21 01:22:50;;;;;;;;;;;;;;;19.02;43.89;93477.63;10422993;28;2619;-57
2023/10/21 01:27:54;;;;;;;;;;;;;;;18.99;43.62;93486.16;10426398;28;2646;-57
2023/10/21 01:32:54;;;;;;;;;;;;;;;19.01;43.67;93478.72;10423960;28;2657;-57
2023/10/21 01:37:54;;;;;;;;;;;;;;;19.01;43.68;93504.19;10428844;28;2611;-57
2023/10/21 01:42:54;;;;;;;;;;;;;;;19.01;43.75;93504.19;10428841;28;2579;-57
2023/10/21 01:47:55;;;;;;;;;;;;;;;19.00;43.74;93508.66;10426368;28;2883;-57
2023/10/21 01:52:55;;;;;;;;;;;;;;;19.00;43.97;93507.91;10427808;28;2599;-57
2023/10/21 01:57:55;;;;;;;;;;;;;;;18.99;43.76;93515.03;10426746;28;2550;-58
2023/10/21 02:02:56;;;;;;;;;;;;;;;19.00;43.71;93529.69;10427092;28;2635;-55
2023/10/21 02:07:56;;;;;;;;;;;;;;;19.00;43.63;93532.31;10425600;28;2579;-57
2023/10/21 02:12:57;;;;;;;;;;;;;;;18.99;43.79;93536.03;10438966;28;2838;-55
2023/10/21 02:17:57;;;;;;;;;;;;;;;19.00;43.74;93550.69;10430864;28;2754;-57
2023/10/21 02:22:57;;;;;;;;;;;;;;;19.00;43.60;93565.69;10431864;28;2567;-58
2023/10/21 02:27:57;;;;;;;;;;;;;;;18.99;43.79;93572.00;10435348;28;2622;-57
2023/10/21 02:32:58;;;;;;;;;;;;;;;18.99;43.82;93585.91;10432539;28;2753;-58
2023/10/21 02:37:58;;;;;;;;;;;;;;;18.99;43.58;93596.41;10428647;28;2591;-58
2023/10/21 02:42:58;;;;;;;;;;;;;;;18.98;43.65;93605.34;10430288;28;2905;-57
2023/10/21 02:47:58;;;;;;;;;;;;;;;18.99;43.70;93614.78;10433899;28;2777;-57
2023/10/21 02:52:59;;;;;;;;;;;;;;;18.98;43.83;93615.88;10430189;28;2673;-58
2023/10/21 02:57:59;;;;;;;;;;;;;;;18.97;43.79;93616.97;10434134;28;2590;-57
2023/10/21 03:02:59;;;;;;;;;;;;;;;18.98;43.71;93626.38;10428775;28;3196;-56
2023/10/21 03:07:59;;;;;;;;;;;;;;;18.99;43.70;93646.28;10432211;28;4637;-58
2023/10/21 03:13:00;;;;;;;;;;;;;;;18.98;43.62;93644.00;10432072;28;2811;-56
2023/10/21 03:18:00;;;;;;;;;;;;;;;18.98;43.62;93647.38;10432584;28;2627;-57
2023/10/21 03:23:00;;;;;;;;;;;;;;;18.97;43.83;93663.44;10430064;28;2782;-57
2023/10/21 03:28:01;;;;;;;;;;;;;;;18.98;43.75;93675.50;10446079;28;2622;-58
2023/10/21 03:33:02;;;;;;;;;;;;;;;18.97;43.56;93677.34;10430633;28;2587;-56
2023/10/21 03:38:02;;;;;;;;;;;;;;;18.97;43.50;93679.19;10428405;28;2579;-58
2023/10/21 03:43:03;;;;;;;;;;;;;;;18.97;43.72;93693.09;10428379;28;2587;-57
2023/10/21 03:48:03;;;;;;;;;;;;;;;18.97;43.62;93706.22;10436171;28;2586;-57
2023/10/21 03:53:03;;;;;;;;;;;;;;;18.97;43.58;93718.56;10432442;28;2641;-58
2023/10/21 03:58:04;;;;;;;;;;;;;;;18.97;43.59;93734.31;10428944;28;2728;-58
2023/10/21 04:03:04;;;;;;;;;;;;;;;18.97;43.59;93736.94;10430387;28;2620;-57
2023/10/21 04:08:05;;;;;;;;;;;;;;;18.96;43.61;93733.53;10424884;28;4704;-58
2023/10/21 04:13:05;;;;;;;;;;;;;;;18.96;43.64;93741.44;10432787;28;2733;-58
2023/10/21 04:18:05;;;;;;;;;;;;;;;18.96;43.49;93759.81;10428625;28;2875;-58
2023/10/21 04:23:06;;;;;;;;;;;;;;;18.96;43.57;93767.69;10432717;28;2844;-56
2023/10/21 04:28:06;;;;;;;;;;;;;;;18.96;43.42;93772.94;10425185;28;2655;-56
2023/10/21 04:33:06;;;;;;;;;;;;;;;18.93;43.50;93785.91;10428978;28;3011;-57
2023/10/21 04:38:07;;;;;;;;;;;;;;;18.95;43.62;93797.66;10429877;28;2767;-57
2023/10/21 04:43:07;;;;;;;;;;;;;;;18.95;43.45;93800.28;10430905;28;2552;-57
2023/10/21 04:48:08;;;;;;;;;;;;;;;18.94;43.58;93805.84;10424997;28;2560;-57
2023/10/21 04:53:09;;;;;;;;;;;;;;;18.95;43.59;93813.41;10429035;28;2646;-58
2023/10/21 04:58:09;;;;;;;;;;;;;;;18.95;43.68;93823.13;10428026;28;2631;-58
2023/10/21 05:03:09;;;;;;;;;;;;;;;18.94;43.68;93824.97;10432973;28;2559;-58
2023/10/21 05:08:09;;;;;;;;;;;;;;;18.93;43.73;93847.06;10426701;28;4582;-56
2023/10/21 05:13:10;;;;;;;;;;;;;;;18.95;43.55;93854.63;10429849;28;2621;-54
2023/10/21 05:18:10;;;;;;;;;;;;;;;18.93;43.64;93860.22;10433613;28;2552;-58
2023/10/21 05:23:11;;;;;;;;;;;;;;;18.93;43.51;93873.34;10427467;28;2673;-54
2023/10/21 05:28:12;;;;;;;;;;;;;;;18.93;43.52;93868.09;10422020;28;2866;-56
2023/10/21 05:33:12;;;;;;;;;;;;;;;18.93;43.56;93873.34;10426836;28;2587;-57
2023/10/21 05:38:12;;;;;;;;;;;;;;;18.92;43.49;93874.41;10428274;28;2640;-56
2023/10/21 05:43:15;;;;;;;;;;;;;;;18.93;43.63;93890.94;10422799;28;3083;-58
2023/10/21 05:48:15;;;;;;;;;;;;;;;18.92;43.75;93899.91;10427989;28;2543;-56
2023/10/21 05:53:16;;;;;;;;;;;;;;;18.92;43.71;93915.66;10424613;28;2595;-56
2023/10/21 05:58:16;;;;;;;;;;;;;;;18.92;43.65;93926.16;10429950;28;2631;-57
2023/10/21 06:03:16;;;;;;;;;;;;;;;18.93;43.60;93940.81;10425903;28;2636;-55
2023/10/21 06:08:17;;;;;;;;;;;;;;;18.92;43.37;93953.16;10426114;28;4777;-58
2023/10/21 06:13:17;;;;;;;;;;;;;;;18.92;43.61;93968.91;10426426;28;2596;-58
2023/10/21 06:18:17;;;;;;;;;;;;;;;18.91;43.46;93979.72;10433332;28;2563;-58
2023/10/21 06:23:18;;;;;;;;;;;;;;;18.91;43.59;93985.75;10428369;28;2635;-58
2023/10/21 06:28:18;;;;;;;;;;;;;;;18.91;43.80;93996.25;10414242;28;2793;-57
2023/10/21 06:33:18;;;;;;;;;;;;;;;18.91;43.45;94004.13;10431819;28;2647;-57
2023/10/21 06:38:18;;;;;;;;;;;;;;;18.91;43.46;94012.00;10428742;28;2910;-57
2023/10/21 06:43:19;;;;;;;;;;;;;;;18.91;43.49;94025.13;10429406;28;2577;-56
2023/10/21 06:48:19;;;;;;;;;;;;;;;18.91;43.65;94030.38;10429603;28;2584;-57
2023/10/21 06:53:19;;;;;;;;;;;;;;;18.92;43.49;94039.06;10435831;28;2488;-54
2023/10/21 06:58:20;;;;;;;;;;;;;;;18.91;43.75;94050.63;10441346;28;2827;-55
2023/10/21 07:03:21;;;;;;;;;;;;;;;18.91;43.58;94067.16;10437786;28;2532;-58
2023/10/21 07:08:23;;;;;;;;;;;;;;;18.92;43.74;94073.94;10436129;28;4689;-57
2023/10/21 07:13:23;;;;;;;;;;;;;;;18.92;43.71;94084.44;10437603;28;2838;-58
2023/10/21 07:18:23;;;;;;;;;;;;;;;18.92;43.59;94094.94;10442222;28;2614;-53
2023/10/21 07:23:24;;;;;;;;;;;;;;;18.92;43.86;94105.44;10429456;28;2817;-57
2023/10/21 07:28:24;;;;;;;;;;;;;;;18.93;43.71;94100.97;10443250;28;2970;-58
2023/10/21 07:33:24;;;;;;;;;;;;;;;18.93;43.65;94107.00;10435794;28;2748;-56
2023/10/21 07:38:24;;;;;;;;;;;;;;;18.94;43.90;94113.78;10432879;28;2598;-56
2023/10/21 07:43:25;;;;;;;;;;;;;;;18.95;43.72;94130.31;10432035;28;2551;-56
2023/10/21 07:48:26;;;;;;;;;;;;;;;18.95;43.89;94131.09;10433646;28;2572;-56
2023/10/21 07:53:26;;;;;;;;;;;;;;;18.95;43.81;94120.59;10428428;28;2865;-57
2023/10/21 07:58:26;;;;;;;;;;;;;;;18.96;43.95;94121.38;10433248;28;2794;-57
2023/10/21 08:03:27;;;;;;;;;;;;;;;18.96;44.00;94126.63;10428235;28;2980;-57
2023/10/21 08:08:29;;;;;;;;;;;;;;;18.98;43.83;94135.75;10427482;28;2762;-56
2023/10/21 08:13:29;;;;;;;;;;;;;;;18.98;43.98;94142.88;10434569;28;2648;-58
2023/10/21 08:18:29;;;;;;;;;;;;;;;18.97;44.03;94141.31;10431365;28;2650;-58
2023/10/21 08:23:30;;;;;;;;;;;;;;;18.99;44.07;94136.53;10432001;28;2607;-58
2023/10/21 08:28:30;;;;;;;;;;;;;;;19.00;44.18;94143.34;10432089;28;2716;-58
2023/10/21 08:33:31;;;;;;;;;;;;;;;19.01;44.10;94152.75;10431104;28;2618;-58
2023/10/21 08:38:33;;;;;;;;;;;;;;;19.01;44.30;94156.16;10435844;28;2590;-57
2023/10/21 08:43:34;;;;;;;;;;;;;;;19.01;44.05;94156.16;10430138;28;2677;-57
2023/10/21 08:48:34;;;;;;;;;;;;;;;19.03;44.31;94167.13;10428909;28;2575;-56
2023/10/21 08:53:36;;;;;;;;;;;;;;;19.04;44.19;94184.44;10429848;28;2534;-57
2023/10/21 08:58:36;;;;;;;;;;;;;;;19.04;44.21;94187.06;10433577;28;2625;-58
2023/10/21 09:03:37;;;;;;;;;;;;;;;19.05;44.27;94193.88;10433023;28;2799;-58
2023/10/21 09:08:38;;;;;;;;;;;;;;;19.05;44.12;94201.75;10431644;28;4590;-58
2023/10/21 09:13:39;;;;;;;;;;;;;;;19.07;44.18;94210.09;10433185;28;2597;-57
2023/10/21 09:18:40;;;;;;;;;;;;;;;19.07;44.10;94207.47;10440642;28;2694;-58
2023/10/21 09:23:50;;;;;;;;;;;;;;;19.09;44.24;94213.19;10441652;28;2848;-57
2023/10/21 09:28:58;;;;;;;;;;;;;;;19.09;44.36;94220.28;10440610;28;2532;-58
2023/10/21 09:34:00;;;;;;;;;;;;;;;19.10;44.23;94216.59;10432773;28;3046;-58
2023/10/21 09:39:01;;;;;;;;;;;;;;;19.10;44.25;94225.25;10433876;28;3062;-58
2023/10/21 09:44:01;;;;;;;;;;;;;;;19.09;44.40;94223.69;10430772;28;2751;-57
2023/10/21 09:49:03;;;;;;;;;;;;;;;19.08;44.06;94224.75;10435053;28;2560;-58
2023/10/21 09:54:05;;;;;;;;;;;;;;;19.11;44.43;94226.03;10427142;28;2877;-58
2023/10/21 09:59:06;;;;;;;;;;;;;;;19.13;44.23;94226.50;10438577;28;2585;-57
2023/10/21 10:04:09;;;;;;;;;;;;;;;19.14;44.48;94231.47;10434611;28;2850;-56
2023/10/21 10:09:10;;;;;;;;;;;;;;;19.13;44.55;94248.28;10431598;28;4929;-58
2023/10/21 10:14:11;;;;;;;;;;;;;;;19.14;44.27;94238.56;10433307;28;2632;-58
2023/10/21 10:19:12;;;;;;;;;;;;;;;19.16;44.27;94229.31;10433916;28;2820;-58
2023/10/21 10:24:12;;;;;;;;;;;;;;;19.18;44.38;94232.41;10437858;28;2587;-58
2023/10/21 10:29:25;;;;;;;;;;;;;;;19.19;44.34;94236.59;10435954;28;2563;-58
2023/10/21 10:34:25;;;;;;;;;;;;;;;19.20;44.43;94232.13;10438574;28;2616;-58
2023/10/21 10:39:38;;;;;;;;;;;;;;;19.20;44.42;94240.00;10433143;28;2850;-58
2023/10/21 10:44:38;;;;;;;;;;;;;;;19.18;44.34;94245.56;10439452;28;2631;-58
2023/10/21 10:49:55;;;;;;;;;;;;;;;19.18;44.41;94235.06;10433408;28;2804;-57
2023/10/21 10:54:55;;;;;;;;;;;;;;;19.17;44.53;94236.09;10437739;28;2720;-58
2023/10/21 10:59:56;;;;;;;;;;;;;;;19.17;44.62;94238.75;10440940;28;2701;-58
2023/10/21 11:04:56;;;;;;;;;;;;;;;19.16;44.54;94239.81;10433696;28;2639;-58
2023/10/21 11:10:03;;;;;;;;;;;;;;;19.16;44.47;94245.09;10438308;28;4705;-58
2023/10/21 11:15:06;;;;;;;;;;;;;;;19.14;44.38;94247.22;10442727;28;2592;-57
2023/10/21 11:20:07;;;;;;;;;;;;;;;19.16;44.45;94239.81;10437069;28;2579;-57
2023/10/21 11:25:07;;;;;;;;;;;;;;;19.18;44.48;94236.88;10435341;28;2636;-58
2023/10/21 11:30:10;;;;;;;;;;;;;;;19.20;44.50;94240.00;10438546;28;2580;-58
2023/10/21 11:35:11;;;;;;;;;;;;;;;19.21;44.60;94233.66;10433991;28;2754;-57
2023/10/21 11:40:11;;;;;;;;;;;;;;;19.21;44.59;94229.19;10429175;28;3394;-57
2023/10/21 11:45:11;;;;;;;;;;;;;;;19.21;44.43;94236.28;10438186;28;2541;-57
2023/10/21 11:50:12;;;;;;;;;;;;;;;19.20;44.62;94235.53;10434142;28;2660;-57
2023/10/21 12:21:18;;;;;;;;;;;;;;;19.22;44.54;94230.75;10433322;28;2531;-58
2023/10/21 12:42:21;;;;;;;;;;;;;;;19.33;44.63;94221.53;10431618;28;2588;-58
2023/10/21 12:47:21;;;;;;;;;;;;;;;19.34;44.65;94244.13;10431260;28;2655;-58
2023/10/21 12:52:22;;;;;;;;;;;;;;;19.33;44.57;94224.16;10429778;28;3016;-58
2023/10/21 12:57:22;;;;;;;;;;;;;;;19.31;44.63;94236.03;10430227;28;2753;-58
2023/10/21 13:02:22;;;;;;;;;;;;;;;19.30;44.67;94240.53;10427984;28;2592;-58
2023/10/21 13:07:23;;;;;;;;;;;;;;;19.29;44.61;94252.09;10429382;28;4740;-58
2023/10/21 13:12:23;;;;;;;;;;;;;;;19.29;44.63;94253.94;10422220;28;2587;-58
2023/10/21 13:17:23;;;;;;;;;;;;;;;19.27;44.84;94249.00;10429816;28;2786;-58
2023/10/21 13:22:23;;;;;;;;;;;;;;;19.28;44.62;94258.44;10431131;28;2649;-58
2023/10/21 13:27:24;;;;;;;;;;;;;;;19.26;44.77;94255.34;10429047;28;2535;-58
2023/10/21 13:32:25;;;;;;;;;;;;;;;19.26;44.68;94265.06;10431372;28;2620;-58
2023/10/21 13:37:26;;;;;;;;;;;;;;;19.23;44.68;94261.19;10431928;28;2600;-58
2023/10/21 13:42:26;;;;;;;;;;;;;;;19.23;44.63;94258.56;10427776;28;2612;-58
2023/10/21 13:47:26;;;;;;;;;;;;;;;19.25;44.96;94245.88;10427656;28;2611;-58
2023/10/21 13:52:26;;;;;;;;;;;;;;;19.23;44.59;94263.81;10428832;28;2956;-58
2023/10/21 13:57:27;;;;;;;;;;;;;;;19.23;44.92;94274.31;10426481;28;2644;-58
2023/10/21 14:02:28;;;;;;;;;;;;;;;19.22;44.91;94266.75;10433255;28;2880;-58
2023/10/21 14:07:28;;;;;;;;;;;;;;;19.22;44.72;94272.00;10429359;28;4630;-58
2023/10/21 14:12:30;;;;;;;;;;;;;;;19.22;45.01;94266.75;10436697;28;2822;-58
2023/10/21 14:17:33;;;;;;;;;;;;;;;19.22;44.72;94282.50;10436367;28;2626;-58
2023/10/21 14:22:34;;;;;;;;;;;;;;;19.21;44.75;94276.47;10436269;28;2690;-58
2023/10/21 14:27:37;;;;;;;;;;;;;;;19.20;44.89;94272.28;10438688;28;2548;-57
2023/10/21 14:32:37;;;;;;;;;;;;;;;19.21;44.68;94284.34;10436621;28;2750;-58
2023/10/21 14:37:38;;;;;;;;;;;;;;;19.21;44.77;94301.94;10435631;28;2616;-58
2023/10/21 14:42:38;;;;;;;;;;;;;;;19.21;44.51;94305.34;10435417;28;2686;-58
2023/10/21 14:47:39;;;;;;;;;;;;;;;19.19;44.79;94310.13;10436636;28;2634;-58
2023/10/21 14:52:42;;;;;;;;;;;;;;;19.18;44.55;94305.19;10428841;28;2596;-59
2023/10/21 14:57:42;;;;;;;;;;;;;;;19.20;44.81;94303.81;10436940;28;2621;-59
2023/10/21 15:02:43;;;;;;;;;;;;;;;19.18;44.61;94300.72;10431141;28;2622;-59
2023/10/21 15:07:44;;;;;;;;;;;;;;;19.18;44.79;94305.97;10432629;28;2646;-58
2023/10/21 15:12:44;;;;;;;;;;;;;;;19.18;44.68;94305.19;10438533;28;2480;-58
2023/10/21 15:17:46;;;;;;;;;;;;;;;19.17;44.55;94314.91;10435148;28;2560;-58
2023/10/21 15:22:46;;;;;;;;;;;;;;;19.18;44.78;94310.44;10429263;28;2664;-58
2023/10/21 15:27:47;;;;;;;;;;;;;;;19.17;44.63;94322.78;10433711;28;3207;-59
2023/10/21 15:32:47;;;;;;;;;;;;;;;19.18;44.59;94324.34;10432061;28;2593;-58
2023/10/21 15:37:47;;;;;;;;;;;;;;;19.17;44.55;94328.03;10430125;28;2815;-58
2023/10/21 15:42:49;;;;;;;;;;;;;;;19.16;44.68;94337.00;10435175;28;2672;-58
2023/10/21 15:47:49;;;;;;;;;;;;;;;19.17;44.49;94340.41;10431840;28;2802;-58
2023/10/21 15:52:49;;;;;;;;;;;;;;;19.16;44.69;94355.41;10432803;28;2635;-58
2023/10/21 15:57:50;;;;;;;;;;;;;;;19.15;44.47;94361.72;10435601;28;2586;-59
2023/10/21 16:02:50;;;;;;;;;;;;;;;19.16;44.43;94368.53;10432619;28;2575;-58
2023/10/21 16:07:50;;;;;;;;;;;;;;;19.16;44.49;94373.78;10435414;28;4456;-59
2023/10/21 16:12:51;;;;;;;;;;;;;;;19.16;44.41;94376.41;10432144;28;2582;-58
2023/10/21 16:17:51;;;;;;;;;;;;;;;19.15;44.46;94395.84;10433293;28;2675;-58
2023/10/21 16:22:51;;;;;;;;;;;;;;;19.14;44.57;94407.44;10434556;28;2841;-58
2023/10/21 16:27:52;;;;;;;;;;;;;;;19.15;44.63;94429.22;10433145;28;2599;-59
2023/10/21 16:32:52;;;;;;;;;;;;;;;19.14;44.61;94452.09;10427307;28;2646;-58
2023/10/21 16:37:52;;;;;;;;;;;;;;;19.16;44.40;94451.81;10430745;28;2658;-58
2023/10/21 16:42:52;;;;;;;;;;;;;;;19.13;44.52;94447.91;10429605;28;2600;-58
2023/10/21 16:47:53;;;;;;;;;;;;;;;19.13;44.29;94453.16;10430604;28;2918;-58
2023/10/21 16:52:53;;;;;;;;;;;;;;;19.13;44.59;94468.94;10426198;28;2661;-58
2023/10/21 16:57:53;;;;;;;;;;;;;;;19.13;44.64;94492.56;10432782;28;2603;-58
2023/10/21 17:02:53;;;;;;;;;;;;;;;19.14;44.64;94503.84;10428287;28;2883;-59
2023/10/21 17:07:54;;;;;;;;;;;;;;;19.13;44.64;94516.22;10426937;28;4313;-58
2023/10/21 17:12:54;;;;;;;;;;;;;;;19.13;44.37;94539.06;10428408;28;2765;-59
2023/10/21 17:17:57;;;;;;;;;;;;;;;19.13;44.51;94547.72;10433434;28;2535;-57
2023/10/21 17:22:58;;;;;;;;;;;;;;;19.13;44.44;94547.72;10426128;28;2607;-59
2023/10/21 17:27:58;;;;;;;;;;;;;;;19.13;44.51;94550.34;10425347;28;2913;-59
2023/10/21 17:32:58;;;;;;;;;;;;;;;19.13;44.45;94567.97;10429986;28;2661;-59
2023/10/21 17:37:59;;;;;;;;;;;;;;;19.14;44.35;94580.03;10426912;28;2587;-58
2023/10/21 17:42:59;;;;;;;;;;;;;;;19.13;44.34;94589.75;10430080;28;2607;-58
2023/10/21 17:47:59;;;;;;;;;;;;;;;19.12;44.47;94603.97;10426745;28;2772;-58
2023/10/21 17:53:02;;;;;;;;;;;;;;;19.13;44.54;94615.25;10425230;28;2524;-58
2023/10/21 17:58:02;;;;;;;;;;;;;;;19.12;44.30;94614.47;10423775;28;2667;-58
2023/10/21 18:03:03;;;;;;;;;;;;;;;19.13;44.47;94618.66;10428281;28;2644;-57
2023/10/21 18:08:03;;;;;;;;;;;;;;;19.13;44.43;94642.28;10426876;28;4732;-57
2023/10/21 18:13:04;;;;;;;;;;;;;;;19.12;44.58;94635.50;10427800;28;2626;-57
2023/10/21 18:18:04;;;;;;;;;;;;;;;19.13;44.23;94629.16;10414592;28;2524;-59
2023/10/21 18:23:04;;;;;;;;;;;;;;;19.14;44.38;94643.88;10426622;28;2660;-57
2023/10/21 18:28:05;;;;;;;;;;;;;;;19.12;44.29;94646.00;10428698;28;2799;-59
2023/10/21 18:33:05;;;;;;;;;;;;;;;19.12;44.29;94646.00;10426858;28;2774;-59
2023/10/21 18:38:05;;;;;;;;;;;;;;;19.12;44.35;94646.00;10406714;28;2560;-57
2023/10/21 18:43:06;;;;;;;;;;;;;;;19.13;44.28;94654.63;10429647;28;2623;-58
2023/10/21 18:48:07;;;;;;;;;;;;;;;19.12;44.33;94646.00;10432144;28;2602;-57
2023/10/21 18:53:07;;;;;;;;;;;;;;;19.11;44.42;94646.28;10429747;28;2646;-56
2023/10/21 18:58:07;;;;;;;;;;;;;;;19.12;44.37;94651.25;10431236;28;2606;-58
2023/10/21 19:03:08;;;;;;;;;;;;;;;19.12;44.37;94656.50;10436778;28;2575;-57
2023/10/21 19:08:08;;;;;;;;;;;;;;;19.13;44.38;94663.31;10432797;28;4721;-57
2023/10/21 19:13:09;;;;;;;;;;;;;;;19.13;44.34;94662.53;10435038;28;2794;-57
2023/10/21 19:18:09;;;;;;;;;;;;;;;19.12;44.50;94661.75;10441227;28;2581;-59
2023/10/21 19:23:10;;;;;;;;;;;;;;;19.12;44.22;94666.22;10432175;28;2572;-59
2023/10/21 19:28:10;;;;;;;;;;;;;;;19.12;44.45;94672.28;10433018;28;2596;-58
2023/10/21 19:33:11;;;;;;;;;;;;;;;19.11;44.35;94675.16;10435299;28;2599;-59
2023/10/21 19:38:11;;;;;;;;;;;;;;;19.11;44.46;94681.19;10433559;28;2552;-58
2023/10/21 19:43:12;;;;;;;;;;;;;;;19.12;44.21;94688.03;10429599;28;2701;-59
2023/10/21 19:48:12;;;;;;;;;;;;;;;19.11;44.28;94681.19;10434477;28;2565;-59
2023/10/21 19:53:12;;;;;;;;;;;;;;;19.13;44.26;94680.91;10432666;28;2769;-59
2023/10/21 19:58:15;;;;;;;;;;;;;;;19.12;44.38;94682.00;10433665;28;2829;-58
2023/10/21 20:03:15;;;;;;;;;;;;;;;19.11;44.33;94675.94;10425449;28;2626;-59
2023/10/21 20:08:16;;;;;;;;;;;;;;;19.11;44.56;94686.47;10431365;28;4746;-57
2023/10/21 20:13:16;;;;;;;;;;;;;;;19.11;44.30;94693.56;10433908;28;2597;-58
2023/10/21 20:18:16;;;;;;;;;;;;;;;19.12;44.37;94695.13;10431505;28;2667;-59
2023/10/21 20:23:17;;;;;;;;;;;;;;;19.11;44.31;94691.72;10422588;28;2929;-58
2023/10/21 20:28:17;;;;;;;;;;;;;;;19.11;44.46;94686.47;10429634;28;2552;-59
2023/10/21 20:33:17;;;;;;;;;;;;;;;19.12;44.33;94705.63;10433239;28;2605;-57
2023/10/21 20:38:17;;;;;;;;;;;;;;;19.11;44.24;94711.94;10430744;28;2578;-59
2023/10/21 20:43:18;;;;;;;;;;;;;;;19.10;44.47;94700.63;10429342;28;2686;-59
2023/10/21 20:48:18;;;;;;;;;;;;;;;19.11;44.49;94707.47;10429672;28;2535;-58
2023/10/21 20:53:18;;;;;;;;;;;;;;;19.11;44.31;94719.81;10425073;28;2762;-59
2023/10/21 20:58:19;;;;;;;;;;;;;;;19.11;44.39;94725.06;10429950;28;2631;-59
2023/10/21 21:03:19;;;;;;;;;;;;;;;19.10;44.34;94718.28;10426231;28;2829;-59
2023/10/21 21:08:19;;;;;;;;;;;;;;;19.10;44.23;94726.16;10428801;28;4588;-58
2023/10/21 21:13:19;;;;;;;;;;;;;;;19.10;44.37;94726.91;10436582;28;2720;-59
2023/10/21 21:18:20;;;;;;;;;;;;;;;19.10;44.46;94723.53;10433937;28;2750;-59
2023/10/21 21:23:20;;;;;;;;;;;;;;;19.10;44.21;94721.66;10434060;28;2807;-59
2023/10/21 21:28:20;;;;;;;;;;;;;;;19.10;44.39;94732.16;10426887;28;2584;-59
2023/10/21 21:33:21;;;;;;;;;;;;;;;19.10;44.46;94736.66;10426556;28;2508;-59
2023/10/21 21:38:21;;;;;;;;;;;;;;;19.09;44.25;94737.72;10425613;28;2788;-59
2023/10/21 21:43:21;;;;;;;;;;;;;;;19.10;44.37;94740.03;10427964;28;2664;-59
2023/10/21 21:48:21;;;;;;;;;;;;;;;19.10;44.43;94747.16;10429244;28;2581;-58
2023/10/21 21:53:22;;;;;;;;;;;;;;;19.09;44.35;94748.22;10427638;28;2620;-59
2023/10/21 21:58:22;;;;;;;;;;;;;;;19.10;44.38;94747.16;10430540;28;2559;-59
2023/10/21 22:03:22;;;;;;;;;;;;;;;19.09;44.21;94745.59;10427728;28;2552;-59
2023/10/21 22:08:22;;;;;;;;;;;;;;;19.08;44.29;94760.56;10422830;28;2608;-59
2023/10/21 22:13:24;;;;;;;;;;;;;;;19.09;44.20;94756.88;10430055;28;2567;-56
2023/10/21 22:18:24;;;;;;;;;;;;;;;19.08;44.32;94760.56;10431969;28;2647;-59
2023/10/21 22:23:27;;;;;;;;;;;;;;;19.08;44.17;94750.06;10427338;28;2589;-58
2023/10/21 22:28:28;;;;;;;;;;;;;;;19.08;44.14;94752.69;10429276;28;2727;-59
2023/10/21 22:33:28;;;;;;;;;;;;;;;19.07;44.23;94745.88;10434013;28;2843;-59
2023/10/21 22:38:28;;;;;;;;;;;;;;;19.08;44.32;94741.41;10434274;28;2910;-58
2023/10/21 22:43:28;;;;;;;;;;;;;;;19.08;44.37;94744.03;10433826;28;2611;-58
2023/10/21 22:48:29;;;;;;;;;;;;;;;19.07;44.13;94758.22;10438197;28;2592;-58
2023/10/21 22:53:30;;;;;;;;;;;;;;;19.07;44.18;94760.84;10416366;28;2581;-59
2023/10/21 22:58:30;;;;;;;;;;;;;;;19.07;44.28;94772.16;10432214;28;2588;-59
2023/10/21 23:03:31;;;;;;;;;;;;;;;19.06;44.36;94773.19;10432575;28;2742;-59
2023/10/21 23:08:37;;;;;;;;;;;;;;;19.06;44.39;94767.94;10435769;28;4780;-57
2023/10/21 23:13:37;;;;;;;;;;;;;;;19.06;44.26;94761.94;10438494;28;2588;-59
2023/10/21 23:18:37;;;;;;;;;;;;;;;19.05;44.09;94755.91;10434154;28;2682;-58
2023/10/21 23:23:38;;;;;;;;;;;;;;;19.06;44.33;94757.44;10438255;28;2679;-59
2023/10/21 23:28:38;;;;;;;;;;;;;;;19.06;44.14;94773.19;10434864;28;2588;-58
2023/10/21 23:33:39;;;;;;;;;;;;;;;19.05;44.22;94753.28;10428264;28;2794;-56
2023/10/21 23:38:42;;;;;;;;;;;;;;;19.04;44.11;94759.59;10432353;28;2585;-58
2023/10/21 23:43:42;;;;;;;;;;;;;;;19.05;44.19;94766.41;10428216;28;2824;-58
2023/10/21 23:48:43;;;;;;;;;;;;;;;19.06;44.19;94782.94;10429811;28;2543;-58
2023/10/21 23:53:43;;;;;;;;;;;;;;;19.04;44.28;94788.47;10429073;28;2534;-58
2023/10/21 23:58:43;;;;;;;;;;;;;;;19.05;44.20;94797.13;10431516;28;2671;-57
